createdAt,value
2023-03-29T00:02:39.934Z,0
2023-03-29T00:07:49.308Z,0
2023-03-29T00:12:58.428Z,0
2023-03-29T00:18:09.080Z,0
2023-03-29T00:23:17.941Z,0
2023-03-29T00:28:27.722Z,0
2023-03-29T00:33:36.837Z,0
2023-03-29T00:38:46.583Z,0
2023-03-29T00:43:55.725Z,0
2023-03-29T00:49:06.128Z,0
2023-03-29T00:54:15.554Z,0
2023-03-29T00:59:25.629Z,0
2023-03-29T01:04:35.385Z,0
2023-03-29T01:09:44.494Z,0
2023-03-29T01:14:54.277Z,0
2023-03-29T01:20:03.384Z,0
2023-03-29T01:25:12.570Z,0
2023-03-29T01:30:22.616Z,0
2023-03-29T01:35:32.168Z,0
2023-03-29T01:40:41.134Z,0
2023-03-29T01:45:49.250Z,0
2023-03-29T02:37:23.377Z,0
2023-03-29T02:42:33.128Z,0
2023-03-29T02:47:42.439Z,0
2023-03-29T02:52:52.010Z,0
2023-03-29T02:58:01.148Z,0
2023-03-29T03:03:10.793Z,0
2023-03-29T03:08:20.024Z,0
2023-03-29T03:10:26.402Z,0
2023-03-29T03:15:43.370Z,0
2023-03-29T03:21:00.692Z,0
2023-03-29T03:26:16.460Z,0
2023-03-29T03:31:34.165Z,0
2023-03-29T03:36:50.243Z,0
2023-03-29T03:42:08.785Z,0
2023-03-29T03:47:24.411Z,0
2023-03-29T03:52:41.760Z,0
2023-03-29T03:57:59.989Z,0
2023-03-29T04:03:18.914Z,0
2023-03-29T04:08:34.762Z,0
2023-03-29T04:13:52.318Z,0
2023-03-29T04:19:08.506Z,0
2023-03-29T04:24:23.830Z,0
2023-03-29T04:29:40.162Z,0
2023-03-29T04:34:56.160Z,0
2023-03-29T04:40:13.123Z,0
2023-03-29T04:45:30.418Z,0
2023-03-29T04:50:46.646Z,1
2023-03-29T04:56:05.305Z,4
2023-03-29T05:01:21.682Z,10
2023-03-29T05:06:40.042Z,18
2023-03-29T05:11:57.300Z,31
2023-03-29T05:17:13.956Z,42
2023-03-29T05:22:28.801Z,52
2023-03-29T05:27:46.141Z,80
2023-03-29T05:33:02.008Z,79
2023-03-29T05:38:19.679Z,83
2023-03-29T05:43:36.622Z,111
2023-03-29T05:48:53.372Z,193
2023-03-29T06:26:04.338Z,536
2023-03-29T06:31:14.287Z,488
2023-03-29T06:36:31.059Z,543
2023-03-29T06:41:47.035Z,624
2023-03-29T06:47:03.605Z,698
2023-03-29T06:52:20.822Z,690
2023-03-29T06:57:38.391Z,696
2023-03-29T07:02:55.104Z,770
2023-03-29T07:08:11.424Z,818
2023-03-29T07:13:26.565Z,986
2023-03-29T07:18:43.205Z,974
2023-03-29T07:24:00.450Z,1091
2023-03-29T07:29:16.329Z,1161
2023-03-29T07:34:33.280Z,1106
2023-03-29T07:39:49.480Z,1011
2023-03-29T07:45:05.463Z,1245
2023-03-29T07:50:24.688Z,1208
2023-03-29T07:55:40.310Z,1301
2023-03-29T08:00:57.909Z,1351
2023-03-29T08:06:13.910Z,1557
2023-03-29T08:11:29.606Z,1976
2023-03-29T08:16:46.583Z,2086
2023-03-29T08:22:03.210Z,2268
2023-03-29T08:27:20.501Z,2312
2023-03-29T08:32:38.992Z,2267
2023-03-29T08:37:54.774Z,2117
2023-03-29T08:43:10.881Z,2408
2023-03-29T08:48:29.150Z,2145
2023-03-29T08:53:45.768Z,2066
2023-03-29T08:59:02.378Z,2131
2023-03-29T09:04:18.912Z,1928
2023-03-29T09:09:35.098Z,2012
2023-03-29T09:14:55.176Z,2069
2023-03-29T09:20:11.704Z,1464
2023-03-29T09:25:28.297Z,1312
2023-03-29T09:51:52.513Z,2714
2023-03-29T09:57:10.302Z,1945
2023-03-29T10:02:26.191Z,2638
2023-03-29T10:07:43.566Z,3548
2023-03-29T10:12:59.779Z,3276
2023-03-29T10:18:15.352Z,2973
2023-03-29T10:23:33.452Z,2494
2023-03-29T10:28:49.770Z,1701
2023-03-29T10:34:05.617Z,1771
2023-03-29T10:39:21.919Z,2754
2023-03-29T10:44:40.033Z,2108
2023-03-29T10:49:57.577Z,2889
2023-03-29T10:55:12.343Z,2481
2023-03-29T11:00:30.246Z,3278
2023-03-29T11:05:47.680Z,3376
2023-03-29T11:11:05.427Z,2737
2023-03-29T11:16:21.255Z,2276
2023-03-29T11:21:37.503Z,2023
2023-03-29T11:26:53.686Z,3223
2023-03-29T11:32:16.852Z,3898
2023-03-29T11:37:27.441Z,4181
2023-03-29T11:42:51.076Z,4091
2023-03-29T11:48:09.311Z,3891
2023-03-29T11:53:25.940Z,3909
2023-03-29T11:58:39.432Z,4245
2023-03-29T12:04:00.627Z,4075
2023-03-29T12:09:09.925Z,4044
2023-03-29T12:14:28.427Z,3583
2023-03-29T12:19:44.054Z,3574
2023-03-29T12:25:00.476Z,2940
2023-03-29T12:30:19.059Z,3615
2023-03-29T12:35:37.264Z,3059
2023-03-29T12:40:55.213Z,3664
2023-03-29T12:46:12.740Z,4337
2023-03-29T12:51:28.350Z,3992
2023-03-29T12:56:44.535Z,3199
2023-03-29T13:02:00.521Z,2678
2023-03-29T13:07:16.320Z,1929
2023-03-29T13:12:33.825Z,1626
2023-03-29T13:17:50.567Z,1266
2023-03-29T13:23:08.001Z,1283
2023-03-29T13:28:24.661Z,1604
2023-03-29T13:33:41.297Z,3297
2023-03-29T13:38:58.886Z,4743
2023-03-29T13:44:15.208Z,5060
2023-03-29T13:49:31.084Z,3364
2023-03-29T13:54:48.877Z,2829
2023-03-29T14:00:05.954Z,2584
2023-03-29T14:05:21.653Z,1833
2023-03-29T14:10:39.691Z,2709
2023-03-29T14:15:56.410Z,2739
2023-03-29T14:21:14.594Z,3265
2023-03-29T14:26:30.731Z,3317
2023-03-29T14:31:47.081Z,3192
2023-03-29T14:37:04.942Z,3495
2023-03-29T14:42:22.403Z,3394
2023-03-29T14:47:39.830Z,3637
2023-03-29T14:52:55.856Z,3092
2023-03-29T14:58:11.994Z,2866
2023-03-29T15:03:28.373Z,2237
2023-03-29T15:09:07.212Z,2757
2023-03-29T15:14:01.795Z,2993
2023-03-29T15:19:19.233Z,3398
2023-03-29T15:24:36.279Z,2861
2023-03-29T15:29:51.617Z,2379
2023-03-29T15:35:10.446Z,1673
2023-03-29T15:40:27.231Z,1368
2023-03-29T15:45:48.048Z,1388
2023-03-29T15:51:07.246Z,1449
2023-03-29T15:56:17.628Z,1325
2023-03-29T16:01:34.918Z,1002
2023-03-29T16:06:51.215Z,817
2023-03-29T16:12:08.485Z,778
2023-03-29T16:17:24.858Z,716
2023-03-29T16:22:41.519Z,645
2023-03-29T16:27:58.878Z,570
2023-03-29T16:33:16.224Z,534
2023-03-29T16:38:33.469Z,726
2023-03-29T16:43:50.100Z,703
2023-03-29T19:54:15.210Z,0
2023-03-29T19:59:30.746Z,0
2023-03-29T20:04:48.181Z,0
2023-03-29T20:10:04.998Z,0
2023-03-29T20:15:23.073Z,0
2023-03-29T20:20:40.530Z,0
2023-03-29T20:25:50.873Z,0
2023-03-29T20:31:08.642Z,0
2023-03-29T20:36:25.513Z,0
2023-03-29T20:41:42.709Z,0
2023-03-29T20:46:58.884Z,0
2023-03-29T20:52:17.026Z,0
2023-03-29T20:57:33.524Z,0
2023-03-29T21:02:50.952Z,0
2023-03-29T21:08:07.354Z,0
2023-03-29T21:13:24.852Z,0
2023-03-29T21:18:42.082Z,0
2023-03-29T21:23:59.196Z,0
2023-03-29T21:29:15.087Z,0
2023-03-29T21:34:31.378Z,0
2023-03-29T21:39:48.967Z,0
2023-03-29T21:45:04.974Z,0
2023-03-29T21:50:22.402Z,0
2023-03-29T21:55:39.671Z,0
2023-03-29T22:00:56.781Z,0
2023-03-29T22:06:12.727Z,0
2023-03-29T22:12:10.844Z,0
2023-03-29T22:17:29.036Z,0
2023-03-29T22:22:49.224Z,0
2023-03-29T22:28:09.541Z,0
2023-03-29T22:33:26.836Z,0
2023-03-29T22:38:45.456Z,0
2023-03-29T22:44:03.368Z,0
2023-03-29T22:49:19.562Z,0
2023-03-29T22:54:36.957Z,0
2023-03-29T22:59:53.475Z,0
2023-03-29T23:05:10.753Z,0
2023-03-29T23:10:29.087Z,0
2023-03-29T23:15:45.032Z,0
2023-03-29T23:21:02.925Z,0
2023-03-29T23:26:19.673Z,0
2023-03-29T23:31:37.231Z,0
2023-03-29T23:36:52.672Z,0
2023-03-29T23:42:09.631Z,0
2023-03-29T23:47:26.403Z,0
2023-03-29T23:52:45.102Z,0
2023-03-29T23:58:03.225Z,0
